sensor_id;sensor_type;location;lat;lon;timestamp;P1;durP1;ratioP1;P2;durP2;ratioP2
63499;SDS011;49654;51.142;14.924;2024-01-15T00:01:49;16.83;;;10.80;;
63499;SDS011;49654;51.142;14.924;2024-01-15T00:04:16;16.00;;;9.77;;
63499;SDS011;49654;51.142;14.924;2024-01-15T00:06:43;16.40;;;10.70;;
63499;SDS011;49654;51.142;14.924;2024-01-15T00:09:10;19.63;;;10.70;;
63499;SDS011;49654;51.142;14.924;2024-01-15T00:11:37;17.77;;;10.77;;
63499;SDS011;49654;51.142;14.924;2024-01-15T00:14:04;20.37;;;11.50;;
63499;SDS011;49654;51.142;14.924;2024-01-15T00:16:32;19.80;;;11.40;;
63499;SDS011;49654;51.142;14.924;2024-01-15T00:18:59;18.93;;;12.40;;
63499;SDS011;49654;51.142;14.924;2024-01-15T00:21:26;22.87;;;12.27;;
63499;SDS011;49654;51.142;14.924;2024-01-15T00:23:54;19.07;;;11.80;;
63499;SDS011;49654;51.142;14.924;2024-01-15T00:26:21;19.20;;;12.17;;
63499;SDS011;49654;51.142;14.924;2024-01-15T00:28:48;20.40;;;12.93;;
63499;SDS011;49654;51.142;14.924;2024-01-15T00:31:15;22.30;;;13.37;;
63499;SDS011;49654;51.142;14.924;2024-01-15T00:33:44;22.03;;;13.20;;
63499;SDS011;49654;51.142;14.924;2024-01-15T00:36:11;23.43;;;14.43;;
63499;SDS011;49654;51.142;14.924;2024-01-15T00:38:38;23.97;;;14.00;;
63499;SDS011;49654;51.142;14.924;2024-01-15T00:41:05;23.53;;;14.20;;
63499;SDS011;49654;51.142;14.924;2024-01-15T00:43:32;21.20;;;13.70;;
63499;SDS011;49654;51.142;14.924;2024-01-15T00:46:01;20.67;;;12.67;;
63499;SDS011;49654;51.142;14.924;2024-01-15T00:48:28;21.40;;;12.60;;
63499;SDS011;49654;51.142;14.924;2024-01-15T00:50:56;20.63;;;12.10;;
63499;SDS011;49654;51.142;14.924;2024-01-15T00:53:23;17.53;;;11.27;;
63499;SDS011;49654;51.142;14.924;2024-01-15T00:55:50;19.33;;;12.30;;
63499;SDS011;49654;51.142;14.924;2024-01-15T00:58:18;22.17;;;12.93;;
63499;SDS011;49654;51.142;14.924;2024-01-15T01:00:45;20.83;;;13.40;;
63499;SDS011;49654;51.142;14.924;2024-01-15T01:03:12;20.50;;;13.03;;
63499;SDS011;49654;51.142;14.924;2024-01-15T01:05:39;20.37;;;12.73;;
63499;SDS011;49654;51.142;14.924;2024-01-15T01:08:07;20.83;;;12.63;;
63499;SDS011;49654;51.142;14.924;2024-01-15T01:10:34;18.37;;;11.30;;
63499;SDS011;49654;51.142;14.924;2024-01-15T01:13:01;19.87;;;12.63;;
63499;SDS011;49654;51.142;14.924;2024-01-15T01:15:28;19.40;;;11.97;;
63499;SDS011;49654;51.142;14.924;2024-01-15T01:17:56;16.73;;;11.13;;
63499;SDS011;49654;51.142;14.924;2024-01-15T01:20:23;18.90;;;11.43;;
63499;SDS011;49654;51.142;14.924;2024-01-15T01:22:50;17.03;;;11.33;;
63499;SDS011;49654;51.142;14.924;2024-01-15T01:25:18;16.77;;;11.07;;
63499;SDS011;49654;51.142;14.924;2024-01-15T01:27:45;20.33;;;11.27;;
63499;SDS011;49654;51.142;14.924;2024-01-15T01:30:12;18.03;;;11.00;;
63499;SDS011;49654;51.142;14.924;2024-01-15T01:32:39;15.27;;;10.30;;
63499;SDS011;49654;51.142;14.924;2024-01-15T01:35:06;15.17;;;10.07;;
63499;SDS011;49654;51.142;14.924;2024-01-15T01:37:33;17.43;;;11.03;;
63499;SDS011;49654;51.142;14.924;2024-01-15T01:40:00;16.97;;;10.27;;
63499;SDS011;49654;51.142;14.924;2024-01-15T01:42:29;14.60;;;9.27;;
63499;SDS011;49654;51.142;14.924;2024-01-15T01:44:55;15.03;;;9.30;;
63499;SDS011;49654;51.142;14.924;2024-01-15T01:47:22;13.57;;;8.80;;
63499;SDS011;49654;51.142;14.924;2024-01-15T01:49:52;15.27;;;8.77;;
63499;SDS011;49654;51.142;14.924;2024-01-15T01:52:19;11.17;;;7.50;;
63499;SDS011;49654;51.142;14.924;2024-01-15T01:54:46;11.73;;;7.77;;
63499;SDS011;49654;51.142;14.924;2024-01-15T01:57:13;11.97;;;7.87;;
63499;SDS011;49654;51.142;14.924;2024-01-15T01:59:42;12.40;;;6.77;;
63499;SDS011;49654;51.142;14.924;2024-01-15T02:02:09;10.67;;;7.30;;
63499;SDS011;49654;51.142;14.924;2024-01-15T02:04:37;9.53;;;6.93;;
63499;SDS011;49654;51.142;14.924;2024-01-15T02:07:05;12.33;;;7.17;;
63499;SDS011;49654;51.142;14.924;2024-01-15T02:09:32;11.80;;;7.37;;
63499;SDS011;49654;51.142;14.924;2024-01-15T02:11:59;11.03;;;7.27;;
63499;SDS011;49654;51.142;14.924;2024-01-15T02:14:26;9.90;;;6.70;;
63499;SDS011;49654;51.142;14.924;2024-01-15T02:16:54;12.20;;;7.40;;
63499;SDS011;49654;51.142;14.924;2024-01-15T02:19:21;12.13;;;7.10;;
63499;SDS011;49654;51.142;14.924;2024-01-15T02:21:48;10.67;;;6.87;;
63499;SDS011;49654;51.142;14.924;2024-01-15T02:24:16;11.83;;;7.50;;
63499;SDS011;49654;51.142;14.924;2024-01-15T02:26:43;12.03;;;7.73;;
63499;SDS011;49654;51.142;14.924;2024-01-15T02:29:10;10.87;;;7.20;;
63499;SDS011;49654;51.142;14.924;2024-01-15T02:31:38;11.27;;;7.23;;
63499;SDS011;49654;51.142;14.924;2024-01-15T02:34:05;10.97;;;6.73;;
63499;SDS011;49654;51.142;14.924;2024-01-15T02:36:32;9.60;;;6.87;;
63499;SDS011;49654;51.142;14.924;2024-01-15T02:39:00;11.00;;;7.23;;
63499;SDS011;49654;51.142;14.924;2024-01-15T02:41:29;11.03;;;7.47;;
63499;SDS011;49654;51.142;14.924;2024-01-15T02:43:56;10.93;;;7.37;;
63499;SDS011;49654;51.142;14.924;2024-01-15T02:46:23;10.20;;;7.03;;
63499;SDS011;49654;51.142;14.924;2024-01-15T02:48:49;10.67;;;6.97;;
63499;SDS011;49654;51.142;14.924;2024-01-15T02:51:16;10.00;;;6.57;;
63499;SDS011;49654;51.142;14.924;2024-01-15T02:53:43;12.37;;;6.50;;
63499;SDS011;49654;51.142;14.924;2024-01-15T02:56:11;10.03;;;6.73;;
63499;SDS011;49654;51.142;14.924;2024-01-15T02:58:38;9.43;;;6.00;;
63499;SDS011;49654;51.142;14.924;2024-01-15T03:01:05;9.40;;;6.30;;
63499;SDS011;49654;51.142;14.924;2024-01-15T03:03:32;10.97;;;6.70;;
63499;SDS011;49654;51.142;14.924;2024-01-15T03:05:59;12.43;;;6.80;;
63499;SDS011;49654;51.142;14.924;2024-01-15T03:08:28;11.27;;;7.27;;
63499;SDS011;49654;51.142;14.924;2024-01-15T03:10:55;9.70;;;6.80;;
63499;SDS011;49654;51.142;14.924;2024-01-15T03:13:22;9.60;;;6.73;;
63499;SDS011;49654;51.142;14.924;2024-01-15T03:15:50;12.43;;;7.17;;
63499;SDS011;49654;51.142;14.924;2024-01-15T03:18:17;10.70;;;6.53;;
63499;SDS011;49654;51.142;14.924;2024-01-15T03:20:44;10.70;;;6.77;;
63499;SDS011;49654;51.142;14.924;2024-01-15T03:23:11;10.40;;;6.37;;
63499;SDS011;49654;51.142;14.924;2024-01-15T03:25:38;10.17;;;6.07;;
63499;SDS011;49654;51.142;14.924;2024-01-15T03:28:05;10.27;;;6.60;;
63499;SDS011;49654;51.142;14.924;2024-01-15T03:30:32;12.63;;;7.17;;
63499;SDS011;49654;51.142;14.924;2024-01-15T03:33:00;12.27;;;7.27;;
63499;SDS011;49654;51.142;14.924;2024-01-15T03:35:30;13.90;;;7.00;;
63499;SDS011;49654;51.142;14.924;2024-01-15T03:37:57;11.87;;;7.13;;
63499;SDS011;49654;51.142;14.924;2024-01-15T03:40:24;13.10;;;8.07;;
63499;SDS011;49654;51.142;14.924;2024-01-15T03:42:51;10.73;;;7.00;;
63499;SDS011;49654;51.142;14.924;2024-01-15T03:45:18;11.67;;;7.53;;
63499;SDS011;49654;51.142;14.924;2024-01-15T03:47:45;16.00;;;8.40;;
63499;SDS011;49654;51.142;14.924;2024-01-15T03:50:13;12.53;;;7.53;;
63499;SDS011;49654;51.142;14.924;2024-01-15T03:52:40;12.53;;;8.03;;
63499;SDS011;49654;51.142;14.924;2024-01-15T03:55:07;10.90;;;6.50;;
63499;SDS011;49654;51.142;14.924;2024-01-15T03:57:34;11.83;;;7.57;;
63499;SDS011;49654;51.142;14.924;2024-01-15T04:00:02;11.57;;;7.13;;
63499;SDS011;49654;51.142;14.924;2024-01-15T04:02:30;12.83;;;8.00;;
63499;SDS011;49654;51.142;14.924;2024-01-15T04:04:57;12.00;;;7.27;;
63499;SDS011;49654;51.142;14.924;2024-01-15T04:07:25;11.60;;;6.67;;
63499;SDS011;49654;51.142;14.924;2024-01-15T04:09:52;12.07;;;7.43;;
63499;SDS011;49654;51.142;14.924;2024-01-15T04:12:19;12.50;;;7.80;;
63499;SDS011;49654;51.142;14.924;2024-01-15T04:14:46;11.80;;;7.37;;
63499;SDS011;49654;51.142;14.924;2024-01-15T04:17:13;11.53;;;7.87;;
63499;SDS011;49654;51.142;14.924;2024-01-15T04:19:40;13.87;;;7.83;;
63499;SDS011;49654;51.142;14.924;2024-01-15T04:22:09;10.87;;;7.30;;
63499;SDS011;49654;51.142;14.924;2024-01-15T04:24:38;10.77;;;7.33;;
63499;SDS011;49654;51.142;14.924;2024-01-15T04:27:05;11.77;;;7.33;;
63499;SDS011;49654;51.142;14.924;2024-01-15T04:29:32;12.33;;;6.87;;
63499;SDS011;49654;51.142;14.924;2024-01-15T04:31:59;11.93;;;7.70;;
63499;SDS011;49654;51.142;14.924;2024-01-15T04:34:26;13.97;;;8.20;;
63499;SDS011;49654;51.142;14.924;2024-01-15T04:36:53;14.47;;;8.37;;
63499;SDS011;49654;51.142;14.924;2024-01-15T04:39:20;11.47;;;7.50;;
63499;SDS011;49654;51.142;14.924;2024-01-15T04:41:49;14.80;;;8.10;;
63499;SDS011;49654;51.142;14.924;2024-01-15T04:44:16;12.67;;;8.20;;
63499;SDS011;49654;51.142;14.924;2024-01-15T04:46:43;13.23;;;8.10;;
63499;SDS011;49654;51.142;14.924;2024-01-15T04:49:10;12.63;;;7.80;;
63499;SDS011;49654;51.142;14.924;2024-01-15T04:51:37;13.83;;;8.07;;
63499;SDS011;49654;51.142;14.924;2024-01-15T04:54:04;13.13;;;8.13;;
63499;SDS011;49654;51.142;14.924;2024-01-15T04:56:31;12.40;;;7.80;;
63499;SDS011;49654;51.142;14.924;2024-01-15T04:58:59;12.73;;;7.37;;
63499;SDS011;49654;51.142;14.924;2024-01-15T05:01:29;12.20;;;7.73;;
63499;SDS011;49654;51.142;14.924;2024-01-15T05:03:57;11.80;;;7.87;;
63499;SDS011;49654;51.142;14.924;2024-01-15T05:06:24;12.50;;;7.37;;
63499;SDS011;49654;51.142;14.924;2024-01-15T05:08:51;14.90;;;8.50;;
63499;SDS011;49654;51.142;14.924;2024-01-15T05:11:18;13.60;;;8.47;;
63499;SDS011;49654;51.142;14.924;2024-01-15T05:13:45;11.13;;;7.23;;
63499;SDS011;49654;51.142;14.924;2024-01-15T05:16:13;13.50;;;8.07;;
63499;SDS011;49654;51.142;14.924;2024-01-15T05:18:40;13.97;;;8.30;;
63499;SDS011;49654;51.142;14.924;2024-01-15T05:21:08;13.63;;;7.80;;
63499;SDS011;49654;51.142;14.924;2024-01-15T05:23:35;12.70;;;7.83;;
63499;SDS011;49654;51.142;14.924;2024-01-15T05:26:02;13.83;;;8.37;;
63499;SDS011;49654;51.142;14.924;2024-01-15T05:28:30;12.87;;;8.03;;
63499;SDS011;49654;51.142;14.924;2024-01-15T05:30:57;12.83;;;7.67;;
63499;SDS011;49654;51.142;14.924;2024-01-15T05:33:25;13.17;;;8.23;;
63499;SDS011;49654;51.142;14.924;2024-01-15T05:35:52;14.97;;;8.40;;
63499;SDS011;49654;51.142;14.924;2024-01-15T05:38:20;13.97;;;8.03;;
63499;SDS011;49654;51.142;14.924;2024-01-15T05:40:47;13.00;;;7.63;;
63499;SDS011;49654;51.142;14.924;2024-01-15T05:43:14;11.97;;;7.70;;
63499;SDS011;49654;51.142;14.924;2024-01-15T05:45:42;12.70;;;7.83;;
63499;SDS011;49654;51.142;14.924;2024-01-15T05:48:10;11.60;;;7.53;;
63499;SDS011;49654;51.142;14.924;2024-01-15T05:50:38;16.67;;;9.10;;
63499;SDS011;49654;51.142;14.924;2024-01-15T05:53:05;12.87;;;8.10;;
63499;SDS011;49654;51.142;14.924;2024-01-15T05:55:32;16.53;;;10.63;;
63499;SDS011;49654;51.142;14.924;2024-01-15T05:57:59;37.57;;;21.63;;
63499;SDS011;49654;51.142;14.924;2024-01-15T06:00:26;13.03;;;8.20;;
63499;SDS011;49654;51.142;14.924;2024-01-15T06:02:53;14.37;;;9.27;;
63499;SDS011;49654;51.142;14.924;2024-01-15T06:05:20;14.20;;;8.47;;
63499;SDS011;49654;51.142;14.924;2024-01-15T06:07:48;12.27;;;7.90;;
63499;SDS011;49654;51.142;14.924;2024-01-15T06:10:15;12.80;;;7.47;;
63499;SDS011;49654;51.142;14.924;2024-01-15T06:12:42;10.47;;;7.40;;
63499;SDS011;49654;51.142;14.924;2024-01-15T06:15:09;12.50;;;7.10;;
63499;SDS011;49654;51.142;14.924;2024-01-15T06:17:37;12.80;;;7.67;;
63499;SDS011;49654;51.142;14.924;2024-01-15T06:20:04;12.73;;;7.07;;
63499;SDS011;49654;51.142;14.924;2024-01-15T06:22:32;12.07;;;7.07;;
63499;SDS011;49654;51.142;14.924;2024-01-15T06:25:00;9.27;;;5.73;;
63499;SDS011;49654;51.142;14.924;2024-01-15T06:27:30;11.27;;;6.60;;
63499;SDS011;49654;51.142;14.924;2024-01-15T06:29:57;11.97;;;7.33;;
63499;SDS011;49654;51.142;14.924;2024-01-15T06:32:24;11.10;;;6.53;;
63499;SDS011;49654;51.142;14.924;2024-01-15T06:34:51;12.43;;;8.40;;
63499;SDS011;49654;51.142;14.924;2024-01-15T06:37:18;13.13;;;7.63;;
63499;SDS011;49654;51.142;14.924;2024-01-15T06:39:45;14.60;;;8.10;;
63499;SDS011;49654;51.142;14.924;2024-01-15T06:42:14;11.30;;;7.13;;
63499;SDS011;49654;51.142;14.924;2024-01-15T06:44:41;12.77;;;7.40;;
63499;SDS011;49654;51.142;14.924;2024-01-15T06:47:08;12.23;;;7.40;;
63499;SDS011;49654;51.142;14.924;2024-01-15T06:49:34;31.53;;;16.40;;
63499;SDS011;49654;51.142;14.924;2024-01-15T06:52:02;14.50;;;8.17;;
63499;SDS011;49654;51.142;14.924;2024-01-15T06:54:29;14.03;;;8.10;;
63499;SDS011;49654;51.142;14.924;2024-01-15T06:56:56;13.23;;;7.03;;
63499;SDS011;49654;51.142;14.924;2024-01-15T06:59:25;15.67;;;8.00;;
63499;SDS011;49654;51.142;14.924;2024-01-15T07:01:52;14.27;;;7.87;;
63499;SDS011;49654;51.142;14.924;2024-01-15T07:04:20;12.97;;;7.70;;
63499;SDS011;49654;51.142;14.924;2024-01-15T07:06:47;14.23;;;7.43;;
63499;SDS011;49654;51.142;14.924;2024-01-15T07:09:14;13.97;;;7.50;;
63499;SDS011;49654;51.142;14.924;2024-01-15T07:11:44;14.07;;;6.83;;
63499;SDS011;49654;51.142;14.924;2024-01-15T07:14:11;14.53;;;7.87;;
63499;SDS011;49654;51.142;14.924;2024-01-15T07:16:39;14.63;;;7.57;;
63499;SDS011;49654;51.142;14.924;2024-01-15T07:19:06;15.77;;;8.33;;
63499;SDS011;49654;51.142;14.924;2024-01-15T07:21:33;13.80;;;7.03;;
63499;SDS011;49654;51.142;14.924;2024-01-15T07:24:00;13.90;;;7.63;;
63499;SDS011;49654;51.142;14.924;2024-01-15T07:26:27;15.90;;;8.23;;
63499;SDS011;49654;51.142;14.924;2024-01-15T07:28:53;13.80;;;7.30;;
63499;SDS011;49654;51.142;14.924;2024-01-15T07:31:21;13.97;;;6.87;;
63499;SDS011;49654;51.142;14.924;2024-01-15T07:33:49;16.93;;;6.87;;
63499;SDS011;49654;51.142;14.924;2024-01-15T07:36:16;12.70;;;7.13;;
63499;SDS011;49654;51.142;14.924;2024-01-15T07:38:45;11.83;;;6.53;;
63499;SDS011;49654;51.142;14.924;2024-01-15T07:41:12;12.20;;;6.87;;
63499;SDS011;49654;51.142;14.924;2024-01-15T07:43:40;12.37;;;6.97;;
63499;SDS011;49654;51.142;14.924;2024-01-15T07:46:06;13.73;;;7.00;;
63499;SDS011;49654;51.142;14.924;2024-01-15T07:48:33;13.23;;;7.43;;
63499;SDS011;49654;51.142;14.924;2024-01-15T07:51:02;11.80;;;6.47;;
63499;SDS011;49654;51.142;14.924;2024-01-15T07:53:29;11.87;;;6.70;;
63499;SDS011;49654;51.142;14.924;2024-01-15T07:55:56;13.77;;;7.53;;
63499;SDS011;49654;51.142;14.924;2024-01-15T07:58:24;22.07;;;13.27;;
63499;SDS011;49654;51.142;14.924;2024-01-15T08:00:51;13.60;;;7.30;;
63499;SDS011;49654;51.142;14.924;2024-01-15T08:03:18;13.10;;;6.83;;
63499;SDS011;49654;51.142;14.924;2024-01-15T08:05:45;11.00;;;6.73;;
63499;SDS011;49654;51.142;14.924;2024-01-15T08:08:13;15.17;;;8.63;;
63499;SDS011;49654;51.142;14.924;2024-01-15T08:10:40;13.53;;;7.00;;
63499;SDS011;49654;51.142;14.924;2024-01-15T08:13:07;10.37;;;5.37;;
63499;SDS011;49654;51.142;14.924;2024-01-15T08:15:36;14.17;;;7.03;;
63499;SDS011;49654;51.142;14.924;2024-01-15T08:18:03;11.63;;;6.13;;
63499;SDS011;49654;51.142;14.924;2024-01-15T08:20:30;11.00;;;6.53;;
63499;SDS011;49654;51.142;14.924;2024-01-15T08:22:57;12.33;;;7.00;;
63499;SDS011;49654;51.142;14.924;2024-01-15T08:25:26;13.30;;;6.57;;
63499;SDS011;49654;51.142;14.924;2024-01-15T08:27:53;12.43;;;6.77;;
63499;SDS011;49654;51.142;14.924;2024-01-15T08:30:19;10.73;;;6.27;;
63499;SDS011;49654;51.142;14.924;2024-01-15T08:32:51;12.87;;;6.43;;
63499;SDS011;49654;51.142;14.924;2024-01-15T08:35:18;12.00;;;5.60;;
63499;SDS011;49654;51.142;14.924;2024-01-15T08:37:48;13.33;;;6.57;;
63499;SDS011;49654;51.142;14.924;2024-01-15T08:40:15;10.60;;;5.73;;
63499;SDS011;49654;51.142;14.924;2024-01-15T08:42:43;12.13;;;5.80;;
63499;SDS011;49654;51.142;14.924;2024-01-15T08:45:11;11.00;;;6.43;;
63499;SDS011;49654;51.142;14.924;2024-01-15T08:47:38;13.03;;;5.80;;
63499;SDS011;49654;51.142;14.924;2024-01-15T08:50:07;11.10;;;6.03;;
63499;SDS011;49654;51.142;14.924;2024-01-15T08:52:35;11.10;;;5.93;;
63499;SDS011;49654;51.142;14.924;2024-01-15T08:55:03;10.53;;;5.83;;
63499;SDS011;49654;51.142;14.924;2024-01-15T08:57:32;11.20;;;5.97;;
63499;SDS011;49654;51.142;14.924;2024-01-15T09:00:01;14.07;;;6.00;;
63499;SDS011;49654;51.142;14.924;2024-01-15T09:02:28;11.70;;;6.00;;
63499;SDS011;49654;51.142;14.924;2024-01-15T09:04:54;9.80;;;5.47;;
63499;SDS011;49654;51.142;14.924;2024-01-15T09:07:21;11.83;;;6.67;;
63499;SDS011;49654;51.142;14.924;2024-01-15T09:09:50;9.60;;;6.17;;
63499;SDS011;49654;51.142;14.924;2024-01-15T09:12:18;9.73;;;5.60;;
63499;SDS011;49654;51.142;14.924;2024-01-15T09:14:47;12.00;;;7.18;;
63499;SDS011;49654;51.142;14.924;2024-01-15T09:17:18;10.33;;;6.37;;
63499;SDS011;49654;51.142;14.924;2024-01-15T09:19:49;11.80;;;6.37;;
63499;SDS011;49654;51.142;14.924;2024-01-15T09:22:16;10.03;;;6.17;;
63499;SDS011;49654;51.142;14.924;2024-01-15T09:24:46;13.10;;;6.77;;
63499;SDS011;49654;51.142;14.924;2024-01-15T09:27:15;14.00;;;6.23;;
63499;SDS011;49654;51.142;14.924;2024-01-15T09:29:42;8.90;;;5.57;;
63499;SDS011;49654;51.142;14.924;2024-01-15T09:32:15;12.70;;;6.73;;
63499;SDS011;49654;51.142;14.924;2024-01-15T09:34:44;12.50;;;6.37;;
63499;SDS011;49654;51.142;14.924;2024-01-15T09:37:13;13.23;;;6.47;;
63499;SDS011;49654;51.142;14.924;2024-01-15T09:39:40;10.33;;;6.07;;
63499;SDS011;49654;51.142;14.924;2024-01-15T09:42:07;11.80;;;6.20;;
63499;SDS011;49654;51.142;14.924;2024-01-15T09:44:35;11.27;;;6.07;;
63499;SDS011;49654;51.142;14.924;2024-01-15T09:47:03;11.67;;;5.93;;
63499;SDS011;49654;51.142;14.924;2024-01-15T09:49:31;13.37;;;5.80;;
63499;SDS011;49654;51.142;14.924;2024-01-15T09:51:59;12.00;;;5.63;;
63499;SDS011;49654;51.142;14.924;2024-01-15T09:54:28;12.93;;;6.43;;
63499;SDS011;49654;51.142;14.924;2024-01-15T09:56:55;12.03;;;5.33;;
63499;SDS011;49654;51.142;14.924;2024-01-15T09:59:22;18.87;;;6.03;;
63499;SDS011;49654;51.142;14.924;2024-01-15T10:01:51;10.70;;;6.00;;
63499;SDS011;49654;51.142;14.924;2024-01-15T10:04:30;12.47;;;6.40;;
63499;SDS011;49654;51.142;14.924;2024-01-15T10:06:57;12.40;;;6.40;;
63499;SDS011;49654;51.142;14.924;2024-01-15T10:09:33;11.93;;;6.30;;
63499;SDS011;49654;51.142;14.924;2024-01-15T10:12:07;11.50;;;5.90;;
63499;SDS011;49654;51.142;14.924;2024-01-15T10:14:43;11.00;;;5.80;;
63499;SDS011;49654;51.142;14.924;2024-01-15T10:17:13;12.20;;;6.30;;
63499;SDS011;49654;51.142;14.924;2024-01-15T10:19:41;8.77;;;5.50;;
63499;SDS011;49654;51.142;14.924;2024-01-15T10:22:08;11.27;;;5.83;;
63499;SDS011;49654;51.142;14.924;2024-01-15T10:24:37;11.67;;;7.00;;
63499;SDS011;49654;51.142;14.924;2024-01-15T10:27:07;11.40;;;5.40;;
63499;SDS011;49654;51.142;14.924;2024-01-15T10:29:35;11.67;;;5.80;;
63499;SDS011;49654;51.142;14.924;2024-01-15T10:32:09;8.87;;;5.40;;
63499;SDS011;49654;51.142;14.924;2024-01-15T10:34:37;9.37;;;5.50;;
63499;SDS011;49654;51.142;14.924;2024-01-15T10:37:06;10.90;;;7.03;;
63499;SDS011;49654;51.142;14.924;2024-01-15T10:40:05;10.90;;;6.27;;
63499;SDS011;49654;51.142;14.924;2024-01-15T10:42:33;16.47;;;10.03;;
63499;SDS011;49654;51.142;14.924;2024-01-15T10:45:00;11.03;;;7.20;;
63499;SDS011;49654;51.142;14.924;2024-01-15T10:47:31;11.70;;;5.90;;
63499;SDS011;49654;51.142;14.924;2024-01-15T10:49:58;10.03;;;5.33;;
63499;SDS011;49654;51.142;14.924;2024-01-15T10:52:26;8.17;;;5.33;;
63499;SDS011;49654;51.142;14.924;2024-01-15T10:54:55;12.07;;;5.50;;
63499;SDS011;49654;51.142;14.924;2024-01-15T10:57:23;9.77;;;5.13;;
63499;SDS011;49654;51.142;14.924;2024-01-15T11:02:24;9.53;;;5.03;;
63499;SDS011;49654;51.142;14.924;2024-01-15T11:04:52;9.73;;;4.80;;
63499;SDS011;49654;51.142;14.924;2024-01-15T11:07:20;8.63;;;4.57;;
63499;SDS011;49654;51.142;14.924;2024-01-15T11:09:48;9.00;;;4.43;;
63499;SDS011;49654;51.142;14.924;2024-01-15T11:12:15;7.67;;;4.97;;
63499;SDS011;49654;51.142;14.924;2024-01-15T11:14:47;9.17;;;4.90;;
63499;SDS011;49654;51.142;14.924;2024-01-15T11:17:15;9.57;;;4.90;;
63499;SDS011;49654;51.142;14.924;2024-01-15T11:19:43;9.07;;;4.97;;
63499;SDS011;49654;51.142;14.924;2024-01-15T11:22:37;7.93;;;4.33;;
63499;SDS011;49654;51.142;14.924;2024-01-15T11:25:17;8.63;;;4.23;;
63499;SDS011;49654;51.142;14.924;2024-01-15T11:27:46;8.80;;;5.07;;
63499;SDS011;49654;51.142;14.924;2024-01-15T11:30:18;8.60;;;4.30;;
63499;SDS011;49654;51.142;14.924;2024-01-15T11:32:46;6.67;;;3.97;;
63499;SDS011;49654;51.142;14.924;2024-01-15T11:35:13;9.73;;;4.50;;
63499;SDS011;49654;51.142;14.924;2024-01-15T11:38:02;8.53;;;4.13;;
63499;SDS011;49654;51.142;14.924;2024-01-15T11:40:39;11.13;;;4.83;;
63499;SDS011;49654;51.142;14.924;2024-01-15T11:43:08;6.53;;;4.00;;
63499;SDS011;49654;51.142;14.924;2024-01-15T11:45:37;9.60;;;4.60;;
63499;SDS011;49654;51.142;14.924;2024-01-15T11:48:10;8.23;;;4.23;;
63499;SDS011;49654;51.142;14.924;2024-01-15T11:50:39;7.23;;;4.10;;
63499;SDS011;49654;51.142;14.924;2024-01-15T11:53:15;9.23;;;4.60;;
63499;SDS011;49654;51.142;14.924;2024-01-15T11:55:53;6.67;;;3.97;;
63499;SDS011;49654;51.142;14.924;2024-01-15T11:58:24;7.53;;;4.00;;
63499;SDS011;49654;51.142;14.924;2024-01-15T12:00:53;10.27;;;4.10;;
63499;SDS011;49654;51.142;14.924;2024-01-15T12:03:23;7.20;;;4.47;;
63499;SDS011;49654;51.142;14.924;2024-01-15T12:05:54;8.17;;;3.77;;
63499;SDS011;49654;51.142;14.924;2024-01-15T12:08:21;9.30;;;4.30;;
63499;SDS011;49654;51.142;14.924;2024-01-15T12:10:49;10.73;;;4.20;;
63499;SDS011;49654;51.142;14.924;2024-01-15T12:13:16;7.83;;;3.83;;
63499;SDS011;49654;51.142;14.924;2024-01-15T12:15:44;6.53;;;3.97;;
63499;SDS011;49654;51.142;14.924;2024-01-15T12:18:14;8.17;;;4.63;;
63499;SDS011;49654;51.142;14.924;2024-01-15T12:20:43;7.07;;;3.83;;
63499;SDS011;49654;51.142;14.924;2024-01-15T12:23:12;6.27;;;3.40;;
63499;SDS011;49654;51.142;14.924;2024-01-15T12:25:39;7.63;;;3.93;;
63499;SDS011;49654;51.142;14.924;2024-01-15T12:28:15;8.57;;;4.23;;
63499;SDS011;49654;51.142;14.924;2024-01-15T12:30:48;6.47;;;3.90;;
63499;SDS011;49654;51.142;14.924;2024-01-15T12:33:17;9.20;;;4.40;;
63499;SDS011;49654;51.142;14.924;2024-01-15T12:35:48;6.33;;;3.67;;
63499;SDS011;49654;51.142;14.924;2024-01-15T12:38:18;8.30;;;3.80;;
63499;SDS011;49654;51.142;14.924;2024-01-15T12:40:46;7.73;;;3.97;;
63499;SDS011;49654;51.142;14.924;2024-01-15T12:43:13;8.73;;;4.60;;
63499;SDS011;49654;51.142;14.924;2024-01-15T12:45:40;8.73;;;4.23;;
63499;SDS011;49654;51.142;14.924;2024-01-15T12:48:11;8.03;;;4.17;;
63499;SDS011;49654;51.142;14.924;2024-01-15T12:50:42;6.53;;;4.10;;
63499;SDS011;49654;51.142;14.924;2024-01-15T12:53:11;8.20;;;4.07;;
63499;SDS011;49654;51.142;14.924;2024-01-15T12:55:38;7.00;;;4.00;;
63499;SDS011;49654;51.142;14.924;2024-01-15T12:58:04;8.63;;;4.40;;
63499;SDS011;49654;51.142;14.924;2024-01-15T13:00:31;9.47;;;4.90;;
63499;SDS011;49654;51.142;14.924;2024-01-15T13:02:58;6.80;;;3.63;;
63499;SDS011;49654;51.142;14.924;2024-01-15T13:05:26;7.00;;;4.33;;
63499;SDS011;49654;51.142;14.924;2024-01-15T13:07:55;7.87;;;4.47;;
63499;SDS011;49654;51.142;14.924;2024-01-15T13:10:22;6.13;;;3.83;;
63499;SDS011;49654;51.142;14.924;2024-01-15T13:12:50;6.73;;;3.77;;
63499;SDS011;49654;51.142;14.924;2024-01-15T13:15:19;8.50;;;4.37;;
63499;SDS011;49654;51.142;14.924;2024-01-15T13:17:46;7.10;;;4.50;;
63499;SDS011;49654;51.142;14.924;2024-01-15T13:20:16;7.33;;;4.43;;
63499;SDS011;49654;51.142;14.924;2024-01-15T13:22:43;8.03;;;4.17;;
63499;SDS011;49654;51.142;14.924;2024-01-15T13:25:12;8.13;;;4.37;;
63499;SDS011;49654;51.142;14.924;2024-01-15T13:27:40;9.73;;;4.80;;
63499;SDS011;49654;51.142;14.924;2024-01-15T13:30:07;8.10;;;4.20;;
63499;SDS011;49654;51.142;14.924;2024-01-15T13:32:36;8.93;;;4.40;;
63499;SDS011;49654;51.142;14.924;2024-01-15T13:35:03;6.20;;;4.43;;
63499;SDS011;49654;51.142;14.924;2024-01-15T13:37:34;8.57;;;4.53;;
63499;SDS011;49654;51.142;14.924;2024-01-15T13:40:02;10.30;;;4.00;;
63499;SDS011;49654;51.142;14.924;2024-01-15T13:42:32;9.67;;;5.17;;
63499;SDS011;49654;51.142;14.924;2024-01-15T13:44:59;9.73;;;4.27;;
63499;SDS011;49654;51.142;14.924;2024-01-15T13:47:26;8.47;;;5.07;;
63499;SDS011;49654;51.142;14.924;2024-01-15T13:49:53;11.47;;;6.20;;
63499;SDS011;49654;51.142;14.924;2024-01-15T13:52:20;33.20;;;20.70;;
63499;SDS011;49654;51.142;14.924;2024-01-15T13:54:47;28.13;;;15.87;;
63499;SDS011;49654;51.142;14.924;2024-01-15T13:57:15;38.80;;;20.17;;
63499;SDS011;49654;51.142;14.924;2024-01-15T13:59:44;15.90;;;9.83;;
63499;SDS011;49654;51.142;14.924;2024-01-15T14:02:11;10.07;;;6.77;;
63499;SDS011;49654;51.142;14.924;2024-01-15T14:04:40;25.07;;;17.30;;
63499;SDS011;49654;51.142;14.924;2024-01-15T14:07:19;10.97;;;6.13;;
63499;SDS011;49654;51.142;14.924;2024-01-15T14:09:46;8.63;;;5.07;;
63499;SDS011;49654;51.142;14.924;2024-01-15T14:12:16;10.50;;;5.90;;
63499;SDS011;49654;51.142;14.924;2024-01-15T14:14:44;10.63;;;7.63;;
63499;SDS011;49654;51.142;14.924;2024-01-15T14:17:11;16.17;;;10.17;;
63499;SDS011;49654;51.142;14.924;2024-01-15T14:19:38;16.93;;;10.53;;
63499;SDS011;49654;51.142;14.924;2024-01-15T14:22:05;11.23;;;6.93;;
63499;SDS011;49654;51.142;14.924;2024-01-15T14:24:32;9.07;;;5.47;;
63499;SDS011;49654;51.142;14.924;2024-01-15T14:26:59;9.93;;;5.70;;
63499;SDS011;49654;51.142;14.924;2024-01-15T14:29:26;11.03;;;5.67;;
63499;SDS011;49654;51.142;14.924;2024-01-15T14:31:54;11.30;;;5.77;;